createdAt,value
2022-10-02T00:02:16.721Z,2.40
2022-10-02T00:07:26.227Z,2.67
2022-10-02T00:12:32.155Z,2.72
2022-10-02T00:17:41.644Z,4.25
2022-10-02T00:22:51.326Z,4.15
2022-10-02T00:28:09.849Z,3.83
2022-10-02T00:33:26.396Z,3.80
2022-10-02T00:38:42.602Z,3.85
2022-10-02T00:43:57.410Z,3.55
2022-10-02T00:49:26.306Z,4.03
2022-10-02T00:55:00.352Z,3.80
2022-10-02T01:00:09.616Z,4.30
2022-10-02T01:05:15.612Z,4.57
2022-10-02T01:15:31.965Z,4.00
2022-10-02T01:20:41.846Z,4.47
2022-10-02T01:25:47.231Z,4.40
2022-10-02T01:30:55.349Z,3.83
2022-10-02T01:35:59.473Z,3.90
2022-10-02T01:41:05.092Z,4.03
2022-10-02T01:46:29.006Z,4.60
2022-10-02T01:52:01.958Z,4.82
2022-10-02T01:57:17.545Z,3.83
2022-10-02T02:02:31.426Z,3.95
2022-10-02T02:07:48.143Z,4.03
2022-10-02T02:13:00.713Z,4.43
2022-10-02T02:18:12.066Z,3.88
2022-10-02T02:23:21.007Z,4.38
2022-10-02T02:28:28.457Z,3.78
2022-10-02T02:33:38.049Z,3.92
2022-10-02T02:38:45.692Z,5.50
2022-10-02T02:43:57.812Z,4.85
2022-10-02T02:49:06.159Z,5.00
2022-10-02T02:54:17.006Z,4.88
2022-10-02T02:59:27.363Z,5.60
2022-10-02T03:04:31.168Z,5.72
2022-10-02T03:09:35.663Z,5.63
2022-10-02T03:15:02.492Z,4.60
2022-10-02T03:25:22.654Z,4.90
2022-10-02T03:30:29.354Z,5.15
2022-10-02T03:35:34.230Z,4.90
2022-10-02T03:40:38.101Z,5.03
2022-10-02T03:45:51.952Z,4.75
2022-10-02T03:50:56.018Z,4.15
2022-10-02T03:56:06.711Z,4.30
2022-10-02T04:01:18.211Z,4.40
2022-10-02T04:06:27.667Z,4.90
2022-10-02T04:11:36.305Z,4.65
2022-10-02T04:16:46.824Z,4.97
2022-10-02T04:21:56.772Z,4.47
2022-10-02T04:27:05.294Z,4.90
2022-10-02T04:32:15.463Z,4.28
2022-10-02T04:37:39.419Z,4.20
2022-10-02T04:42:52.723Z,4.47
2022-10-02T04:48:17.803Z,4.40
2022-10-02T04:53:51.986Z,4.55
2022-10-02T04:59:20.910Z,4.60
2022-10-02T05:04:54.097Z,4.30
2022-10-02T05:10:03.666Z,3.95
2022-10-02T05:15:33.724Z,3.65
2022-10-02T05:20:57.486Z,4.47
2022-10-02T05:26:27.190Z,4.72
2022-10-02T05:31:42.355Z,4.97
2022-10-02T05:37:06.725Z,4.23
2022-10-02T05:42:20.271Z,4.05
2022-10-02T05:47:29.412Z,4.30
2022-10-02T05:52:41.916Z,3.38
2022-10-02T05:57:49.925Z,4.03
2022-10-02T06:03:01.506Z,3.13
2022-10-02T06:08:11.121Z,3.05
2022-10-02T06:13:24.053Z,2.83
2022-10-02T06:18:33.335Z,2.58
2022-10-02T06:23:43.559Z,2.63
2022-10-02T06:28:53.193Z,2.55
2022-10-02T06:33:59.804Z,2.78
2022-10-02T06:39:26.090Z,1.80
2022-10-02T06:44:40.271Z,2.23
2022-10-02T06:49:56.776Z,2.13
2022-10-02T06:55:22.925Z,2.30
2022-10-02T07:00:27.070Z,2.60
2022-10-02T07:05:49.732Z,2.50
2022-10-02T07:11:04.482Z,2.63
2022-10-02T07:16:27.667Z,2.25
2022-10-02T07:21:41.188Z,2.50
2022-10-02T07:26:55.578Z,2.63
2022-10-02T07:32:42.763Z,2.20
2022-10-02T07:38:00.040Z,2.45
2022-10-02T07:43:15.259Z,2.67
2022-10-02T07:48:43.802Z,3.30
2022-10-02T07:53:55.226Z,2.47
2022-10-02T07:59:07.933Z,2.35
2022-10-02T08:04:15.150Z,2.47
2022-10-02T08:09:24.627Z,2.00
2022-10-02T08:14:38.322Z,2.45
2022-10-02T08:19:49.665Z,2.05
2022-10-02T08:24:57.420Z,1.77
2022-10-02T08:30:06.666Z,2.60
2022-10-02T08:35:14.325Z,1.73
2022-10-02T08:40:54.580Z,2.30
2022-10-02T08:46:41.213Z,1.77
2022-10-02T08:52:07.722Z,2.30
2022-10-02T08:57:47.690Z,1.90
2022-10-02T09:03:39.416Z,1.50
2022-10-02T09:09:16.739Z,1.63
2022-10-02T09:14:47.251Z,1.98
2022-10-02T09:20:07.410Z,1.67
2022-10-02T09:25:37.396Z,1.85
2022-10-02T09:31:20.441Z,2.17
2022-10-02T09:36:55.075Z,1.60
2022-10-02T09:42:36.022Z,1.83
2022-10-02T09:48:18.956Z,2.00
2022-10-02T09:54:02.767Z,1.85
2022-10-02T09:59:32.818Z,1.85
2022-10-02T10:05:07.376Z,2.00
2022-10-02T10:10:46.550Z,2.05
2022-10-02T10:16:21.289Z,1.50
2022-10-02T10:21:51.731Z,1.77
2022-10-02T10:27:18.273Z,1.80
2022-10-02T10:33:09.348Z,1.80
2022-10-02T10:38:39.825Z,2.03
2022-10-02T10:44:21.992Z,2.35
2022-10-02T10:50:02.349Z,2.20
2022-10-02T10:55:20.245Z,1.98
2022-10-02T11:00:26.541Z,3.00
2022-10-02T11:05:58.376Z,2.60
2022-10-02T11:11:13.545Z,2.42
2022-10-02T11:16:45.486Z,2.43
2022-10-02T11:22:14.785Z,3.38
2022-10-02T11:27:42.141Z,2.20
2022-10-02T11:33:05.431Z,2.80
2022-10-02T11:38:23.645Z,2.10
2022-10-02T11:43:43.906Z,2.00
2022-10-02T11:49:27.406Z,1.92
2022-10-02T11:54:56.827Z,2.65
2022-10-02T12:00:18.473Z,2.88
2022-10-02T12:05:44.810Z,2.47
2022-10-02T12:11:00.141Z,2.63
2022-10-02T12:16:11.352Z,2.50
2022-10-02T12:22:00.406Z,2.67
2022-10-02T12:27:15.167Z,2.40
2022-10-02T12:32:37.639Z,2.50
2022-10-02T12:37:47.209Z,2.33
2022-10-02T12:43:27.145Z,2.55
2022-10-02T12:49:06.976Z,1.95
2022-10-02T12:54:45.387Z,2.60
2022-10-02T13:00:01.835Z,2.22
2022-10-02T13:05:38.029Z,2.83
2022-10-02T13:10:48.267Z,3.22
2022-10-02T13:16:03.040Z,2.97
2022-10-02T13:21:17.313Z,2.38
2022-10-02T13:26:30.681Z,2.78
2022-10-02T13:31:49.771Z,2.20
2022-10-02T13:37:07.726Z,3.30
2022-10-02T13:42:29.124Z,2.08
2022-10-02T13:47:41.534Z,2.25
2022-10-02T13:53:02.343Z,3.08
2022-10-02T13:58:38.963Z,4.03
2022-10-02T14:04:19.558Z,3.38
2022-10-02T14:09:51.350Z,2.40
2022-10-02T14:15:07.552Z,3.25
2022-10-02T14:20:38.577Z,3.22
2022-10-02T14:26:06.931Z,3.00
2022-10-02T14:31:35.026Z,3.60
2022-10-02T14:36:48.953Z,3.40
2022-10-02T14:42:13.587Z,4.05
2022-10-02T14:47:35.439Z,3.95
2022-10-02T14:52:57.571Z,5.57
2022-10-02T14:58:17.716Z,5.30
2022-10-02T15:03:56.474Z,2.72
2022-10-02T15:09:07.786Z,3.25
2022-10-02T15:14:18.304Z,3.30
2022-10-02T15:19:27.054Z,2.80
2022-10-02T15:24:41.140Z,4.25
2022-10-02T15:30:01.217Z,4.50
2022-10-02T15:35:28.943Z,2.97
2022-10-02T15:40:42.802Z,3.20
2022-10-02T15:46:01.080Z,2.75
2022-10-02T15:51:17.809Z,2.63
2022-10-02T15:56:40.052Z,3.67
2022-10-02T16:01:56.415Z,3.20
2022-10-02T16:07:46.346Z,3.15
2022-10-02T16:13:08.757Z,2.95
2022-10-02T16:18:30.140Z,3.40
2022-10-02T16:24:10.963Z,4.93
2022-10-02T16:29:32.619Z,4.30
2022-10-02T16:34:44.242Z,4.53
2022-10-02T16:40:00.583Z,18.17
2022-10-02T16:45:31.308Z,7.90
2022-10-02T16:50:48.742Z,6.30
2022-10-02T16:55:59.547Z,6.07
2022-10-02T17:01:18.697Z,4.50
2022-10-02T17:06:30.324Z,4.63
2022-10-02T17:11:38.101Z,4.80
2022-10-02T17:16:53.262Z,5.50
2022-10-02T17:22:03.571Z,4.33
2022-10-02T17:27:17.155Z,4.20
2022-10-02T17:32:39.564Z,4.80
2022-10-02T17:37:57.437Z,3.95
2022-10-02T17:43:10.282Z,3.60
2022-10-02T17:48:28.904Z,4.68
2022-10-02T17:54:15.566Z,7.10
2022-10-02T17:59:33.569Z,6.10
2022-10-02T18:04:50.919Z,7.45
2022-10-02T18:10:04.574Z,7.10
2022-10-02T18:15:29.873Z,7.88
2022-10-02T18:20:37.569Z,5.60
2022-10-02T18:25:53.030Z,4.13
2022-10-02T18:31:07.590Z,4.23
2022-10-02T18:36:26.781Z,5.75
2022-10-02T18:41:50.300Z,4.80
2022-10-02T18:47:04.927Z,4.90
2022-10-02T18:52:38.572Z,5.13
2022-10-02T18:57:53.092Z,4.82
2022-10-02T19:03:27.109Z,4.28
2022-10-02T19:09:12.863Z,4.15
2022-10-02T19:14:22.933Z,3.58
2022-10-02T19:19:28.481Z,3.80
2022-10-02T19:24:38.918Z,4.00
2022-10-02T19:29:48.673Z,4.25
2022-10-02T19:35:02.182Z,5.70
2022-10-02T19:40:16.797Z,4.97
2022-10-02T19:45:26.801Z,5.20
2022-10-02T19:50:41.038Z,4.82
2022-10-02T19:55:50.721Z,4.47
2022-10-02T20:00:56.321Z,4.55
2022-10-02T20:11:12.118Z,4.25
2022-10-02T20:16:37.860Z,3.45
2022-10-02T20:21:43.970Z,4.20
2022-10-02T20:26:51.837Z,3.78
2022-10-02T20:32:00.168Z,3.50
2022-10-02T20:37:09.039Z,3.97
2022-10-02T20:42:20.028Z,3.70
2022-10-02T20:47:44.554Z,3.90
2022-10-02T20:53:26.910Z,3.92
2022-10-02T20:58:53.122Z,4.25
2022-10-02T21:10:08.598Z,4.07
2022-10-02T21:15:58.951Z,7.18
2022-10-02T21:21:23.012Z,4.40
2022-10-02T21:27:00.405Z,4.15
2022-10-02T21:32:51.548Z,4.45
2022-10-02T21:38:19.144Z,3.58
2022-10-02T21:44:09.091Z,3.58
2022-10-02T21:49:45.273Z,3.17
2022-10-02T21:55:32.683Z,3.17
2022-10-02T22:00:56.450Z,3.33
2022-10-02T22:06:26.875Z,3.38
2022-10-02T22:11:40.782Z,3.25
2022-10-02T22:16:55.225Z,3.15
2022-10-02T22:22:13.643Z,2.90
2022-10-02T22:27:41.502Z,3.90
2022-10-02T22:33:18.686Z,3.60
2022-10-02T22:38:27.418Z,3.08
2022-10-02T22:43:43.141Z,3.00
2022-10-02T22:48:51.580Z,2.58
2022-10-02T22:54:03.707Z,2.92
2022-10-02T22:59:14.371Z,2.75
2022-10-02T23:04:27.273Z,2.70
2022-10-02T23:09:40.714Z,2.90
2022-10-02T23:14:57.321Z,3.00
2022-10-02T23:20:08.211Z,3.13
2022-10-02T23:25:20.677Z,2.90
2022-10-02T23:30:26.340Z,2.55
2022-10-02T23:35:37.152Z,2.78
2022-10-02T23:41:17.839Z,4.00
2022-10-02T23:46:29.968Z,2.75
2022-10-02T23:51:46.666Z,2.38
2022-10-02T23:57:07.319Z,3.15
